createdAt,value
2018-02-21T00:00:30.878Z,93.4
2018-02-21T00:01:31.652Z,98.5
2018-02-21T00:02:32.448Z,102.0
2018-02-21T00:03:33.221Z,99.0
2018-02-21T00:04:33.965Z,95.7
2018-02-21T00:05:34.686Z,96.5
2018-02-21T00:06:35.436Z,96.5
2018-02-21T00:07:36.121Z,96.7
2018-02-21T00:08:36.916Z,106.8
2018-02-21T00:09:37.632Z,129.8
2018-02-21T00:10:38.348Z,107.5
2018-02-21T00:11:39.120Z,102.8
2018-02-21T00:12:39.900Z,103.9
2018-02-21T00:13:40.715Z,103.5
2018-02-21T00:14:41.427Z,101.1
2018-02-21T00:15:42.155Z,96.9
2018-02-21T00:16:43.607Z,101.1
2018-02-21T00:17:44.471Z,102.7
2018-02-21T00:18:45.243Z,103.9
2018-02-21T00:19:45.970Z,102.5
2018-02-21T00:20:46.700Z,99.6
2018-02-21T00:21:47.419Z,98.2
2018-02-21T00:22:48.147Z,98.2
2018-02-21T00:23:48.870Z,106.0
2018-02-21T00:24:49.590Z,127.4
2018-02-21T00:25:50.396Z,109.4
2018-02-21T00:26:51.150Z,103.7
2018-02-21T00:27:51.868Z,105.1
2018-02-21T00:28:52.605Z,102.1
2018-02-21T00:29:53.358Z,99.6
2018-02-21T00:30:54.077Z,99.4
2018-02-21T00:31:54.807Z,102.4
2018-02-21T00:32:55.521Z,97.7
2018-02-21T00:33:56.300Z,99.8
2018-02-21T00:34:57.017Z,98.9
2018-02-21T00:35:57.776Z,102.2
2018-02-21T00:36:58.549Z,101.2
2018-02-21T00:37:59.286Z,100.7
2018-02-21T00:39:00.007Z,101.2
2018-02-21T00:40:00.739Z,103.1
2018-02-21T00:41:01.495Z,103.2
2018-02-21T00:42:02.264Z,107.0
2018-02-21T00:43:02.992Z,105.9
2018-02-21T00:44:03.770Z,106.4
2018-02-21T00:45:04.491Z,105.3
2018-02-21T00:46:05.288Z,103.5
2018-02-21T00:47:06.012Z,103.4
2018-02-21T00:48:06.752Z,108.0
2018-02-21T00:49:07.479Z,106.6
2018-02-21T00:50:08.252Z,108.2
2018-02-21T00:51:08.995Z,111.1
2018-02-21T00:52:09.759Z,114.3
2018-02-21T00:53:10.519Z,112.5
2018-02-21T00:54:11.284Z,115.3
2018-02-21T00:55:12.002Z,115.3
2018-02-21T00:56:12.734Z,108.4
2018-02-21T00:57:13.490Z,106.5
2018-02-21T00:58:14.210Z,104.7
2018-02-21T00:59:14.931Z,105.9
2018-02-21T01:00:15.651Z,107.0
2018-02-21T01:01:16.360Z,103.0
2018-02-21T01:02:17.116Z,104.1
2018-02-21T01:03:17.840Z,105.5
2018-02-21T01:04:18.559Z,101.0
2018-02-21T01:05:19.268Z,103.2
2018-02-21T01:06:20.066Z,105.8
2018-02-21T01:07:20.786Z,107.8
2018-02-21T01:08:21.506Z,101.4
2018-02-21T01:09:22.239Z,102.4
2018-02-21T01:10:22.977Z,103.4
2018-02-21T01:11:23.739Z,100.3
2018-02-21T01:12:24.467Z,106.2
2018-02-21T01:13:25.269Z,102.8
2018-02-21T01:14:26.007Z,102.5
2018-02-21T01:15:26.721Z,101.9
2018-02-21T01:16:27.450Z,104.3
2018-02-21T01:17:28.167Z,105.8
2018-02-21T01:18:28.880Z,104.3
2018-02-21T01:19:29.647Z,102.6
2018-02-21T01:20:30.380Z,104.7
2018-02-21T01:21:31.099Z,106.4
2018-02-21T01:22:31.824Z,105.2
2018-02-21T01:23:32.550Z,108.6
2018-02-21T01:24:33.276Z,104.3
2018-02-21T01:25:33.991Z,106.2
2018-02-21T01:26:34.722Z,102.5
2018-02-21T01:27:35.420Z,108.8
2018-02-21T01:28:36.148Z,110.1
2018-02-21T01:29:36.870Z,111.5
2018-02-21T01:30:37.600Z,105.3
2018-02-21T01:31:38.326Z,105.4
2018-02-21T01:32:39.054Z,106.7
2018-02-21T01:33:39.839Z,109.4
2018-02-21T01:34:40.555Z,106.8
2018-02-21T01:35:41.298Z,104.3
2018-02-21T01:36:42.018Z,107.8
2018-02-21T01:37:42.737Z,104.8
2018-02-21T01:38:43.455Z,107.1
2018-02-21T01:39:44.173Z,103.3
2018-02-21T01:40:44.898Z,106.7
2018-02-21T01:41:45.687Z,104.3
2018-02-21T01:42:46.419Z,105.7
2018-02-21T01:43:47.134Z,106.8
2018-02-21T01:44:47.933Z,109.4
2018-02-21T01:45:48.657Z,103.6
2018-02-21T01:46:49.380Z,105.4
2018-02-21T01:47:50.103Z,101.5
2018-02-21T01:48:50.826Z,101.1
2018-02-21T01:49:51.537Z,95.8
2018-02-21T01:50:52.264Z,96.0
2018-02-21T01:51:53.031Z,94.7
2018-02-21T01:52:53.757Z,93.8
2018-02-21T01:53:54.490Z,93.7
2018-02-21T01:54:55.240Z,93.8
2018-02-21T01:55:56.026Z,91.2
2018-02-21T01:56:56.735Z,90.3
2018-02-21T01:57:57.463Z,91.6
2018-02-21T01:58:58.188Z,89.4
2018-02-21T01:59:58.910Z,88.4
2018-02-21T02:00:59.645Z,86.3
2018-02-21T02:02:00.416Z,90.1
2018-02-21T02:03:01.128Z,88.9
2018-02-21T02:04:01.849Z,88.3
2018-02-21T02:05:02.566Z,84.5
2018-02-21T02:06:03.274Z,88.7
2018-02-21T02:07:03.986Z,86.4
2018-02-21T02:08:04.708Z,85.0
2018-02-21T02:09:05.429Z,87.1
2018-02-21T02:10:06.206Z,82.0
2018-02-21T02:11:06.923Z,84.4
2018-02-21T02:12:07.654Z,81.0
2018-02-21T02:13:08.357Z,83.2
2018-02-21T02:14:09.089Z,78.9
2018-02-21T02:15:09.819Z,83.9
2018-02-21T02:16:10.567Z,82.7
2018-02-21T02:17:11.297Z,84.6
2018-02-21T02:18:12.094Z,84.0
2018-02-21T02:19:12.889Z,84.3
2018-02-21T02:20:13.623Z,85.2
2018-02-21T02:21:14.418Z,87.4
2018-02-21T02:22:15.139Z,90.3
2018-02-21T02:23:15.887Z,90.8
2018-02-21T02:24:16.576Z,92.0
2018-02-21T02:25:17.321Z,90.5
2018-02-21T02:26:18.116Z,90.7
2018-02-21T02:27:18.854Z,90.4
2018-02-21T02:28:19.576Z,88.7
2018-02-21T02:29:20.294Z,91.1
2018-02-21T02:30:21.010Z,90.4
2018-02-21T02:31:21.746Z,90.9
2018-02-21T02:32:22.455Z,92.1
2018-02-21T02:33:23.165Z,92.5
2018-02-21T02:34:23.900Z,92.0
2018-02-21T02:35:24.661Z,89.8
2018-02-21T02:36:25.427Z,87.4
2018-02-21T02:37:26.151Z,91.4
2018-02-21T02:38:26.879Z,88.2
2018-02-21T02:39:27.659Z,87.8
2018-02-21T02:40:28.383Z,85.4
2018-02-21T02:41:29.110Z,84.6
2018-02-21T02:42:29.825Z,85.9
2018-02-21T02:43:30.538Z,88.4
2018-02-21T02:44:31.358Z,91.7
2018-02-21T02:45:32.080Z,94.2
2018-02-21T02:46:32.805Z,95.0
2018-02-21T02:47:33.521Z,94.5
2018-02-21T02:48:34.246Z,98.3
2018-02-21T02:49:34.970Z,99.2
2018-02-21T02:50:35.690Z,99.9
2018-02-21T02:51:36.414Z,102.3
2018-02-21T02:52:37.212Z,100.9
2018-02-21T02:53:37.938Z,95.4
2018-02-21T02:54:38.710Z,99.1
2018-02-21T02:55:39.475Z,96.3
2018-02-21T02:56:40.196Z,93.2
2018-02-21T02:57:40.931Z,94.7
2018-02-21T02:58:41.706Z,96.4
2018-02-21T02:59:42.449Z,89.7
2018-02-21T03:00:43.167Z,92.1
2018-02-21T03:01:43.962Z,90.0
2018-02-21T03:02:44.688Z,87.3
2018-02-21T03:03:45.430Z,85.0
2018-02-21T03:04:46.177Z,82.1
2018-02-21T03:05:46.899Z,81.7
2018-02-21T03:06:47.609Z,84.2
2018-02-21T03:07:48.331Z,82.0
2018-02-21T03:08:49.048Z,82.4
2018-02-21T03:09:49.779Z,82.5
2018-02-21T03:10:50.508Z,81.2
2018-02-21T03:11:51.292Z,79.2
2018-02-21T03:12:52.011Z,81.0
2018-02-21T03:13:52.799Z,80.4
2018-02-21T03:14:53.520Z,81.5
2018-02-21T03:15:54.328Z,82.6
2018-02-21T03:16:55.047Z,83.2
2018-02-21T03:17:55.787Z,82.8
2018-02-21T03:18:56.509Z,80.9
2018-02-21T03:19:57.235Z,78.4
2018-02-21T03:20:57.960Z,81.0
2018-02-21T03:21:58.691Z,80.1
2018-02-21T03:22:59.479Z,78.4
2018-02-21T03:24:00.215Z,76.2
2018-02-21T03:25:00.989Z,76.6
2018-02-21T03:26:01.709Z,78.3
2018-02-21T03:27:02.435Z,84.1
2018-02-21T03:28:03.224Z,86.8
2018-02-21T03:29:04.000Z,86.6
2018-02-21T03:30:04.767Z,88.0
2018-02-21T03:31:05.478Z,87.4
2018-02-21T03:32:06.198Z,87.1
2018-02-21T03:33:07.010Z,84.0
2018-02-21T03:34:07.789Z,84.8
2018-02-21T03:35:08.562Z,81.4
2018-02-21T03:36:09.295Z,84.3
2018-02-21T03:37:10.012Z,83.7
2018-02-21T03:38:10.751Z,83.0
2018-02-21T03:39:11.524Z,82.3
2018-02-21T03:40:12.241Z,79.5
2018-02-21T03:41:12.973Z,81.7
2018-02-21T03:42:13.686Z,83.3
2018-02-21T03:43:14.410Z,83.5
2018-02-21T03:44:15.146Z,81.7
2018-02-21T03:45:15.856Z,80.4
2018-02-21T03:46:16.592Z,80.2
2018-02-21T03:47:17.316Z,78.2
2018-02-21T03:48:18.042Z,78.6
2018-02-21T03:49:18.755Z,76.4
2018-02-21T03:50:19.477Z,81.3
2018-02-21T03:51:20.229Z,77.6
2018-02-21T03:52:21.022Z,79.2
2018-02-21T03:53:21.759Z,76.6
2018-02-21T03:54:22.474Z,77.6
2018-02-21T03:55:23.213Z,74.1
2018-02-21T03:56:23.915Z,76.0
2018-02-21T03:57:24.731Z,76.1
2018-02-21T03:58:25.454Z,78.4
2018-02-21T03:59:26.241Z,80.3
2018-02-21T04:00:26.960Z,76.5
2018-02-21T04:01:27.682Z,79.4
2018-02-21T04:02:28.420Z,78.7
2018-02-21T04:03:29.156Z,76.2
2018-02-21T04:04:29.871Z,79.3
2018-02-21T04:05:30.592Z,75.4
2018-02-21T04:06:31.390Z,76.1
2018-02-21T04:07:32.152Z,75.0
2018-02-21T04:08:32.883Z,72.6
2018-02-21T04:09:33.610Z,72.2
2018-02-21T04:10:34.402Z,73.4
2018-02-21T04:11:35.157Z,78.1
2018-02-21T04:12:35.880Z,75.2
2018-02-21T04:13:36.593Z,73.4
2018-02-21T04:19:34.405Z,72.1
2018-02-21T04:20:35.146Z,73.5
2018-02-21T04:21:35.919Z,74.3
2018-02-21T04:22:36.706Z,73.5
2018-02-21T04:23:37.424Z,75.9
2018-02-21T04:24:38.150Z,74.9
2018-02-21T04:25:38.889Z,73.9
2018-02-21T04:26:39.611Z,72.3
2018-02-21T04:27:40.331Z,71.6
2018-02-21T04:28:41.059Z,70.6
2018-02-21T04:29:41.777Z,69.7
2018-02-21T04:30:42.508Z,69.0
2018-02-21T04:31:43.233Z,68.1
2018-02-21T04:32:44.028Z,73.3
2018-02-21T04:33:44.771Z,70.6
2018-02-21T04:34:45.550Z,71.7
2018-02-21T04:35:46.336Z,70.7
2018-02-21T04:36:47.048Z,70.4
2018-02-21T04:37:47.769Z,71.4
2018-02-21T04:38:48.578Z,75.3
2018-02-21T04:39:49.297Z,74.2
2018-02-21T04:40:50.022Z,73.1
2018-02-21T04:41:50.747Z,77.2
2018-02-21T04:42:51.449Z,72.6
2018-02-21T04:43:52.238Z,68.4
2018-02-21T04:44:52.967Z,64.2
2018-02-21T04:45:53.773Z,63.9
2018-02-21T04:46:54.532Z,64.9
2018-02-21T04:47:55.344Z,65.0
2018-02-21T04:48:56.067Z,64.0
2018-02-21T04:49:56.807Z,66.4
2018-02-21T04:50:57.582Z,64.7
2018-02-21T04:51:58.318Z,66.2
2018-02-21T04:52:59.084Z,67.1
2018-02-21T04:53:59.804Z,64.1
2018-02-21T04:55:00.522Z,65.4
2018-02-21T04:56:01.242Z,63.1
2018-02-21T04:57:01.960Z,62.8
2018-02-21T04:58:02.666Z,64.9
2018-02-21T04:59:03.388Z,62.4
2018-02-21T05:00:04.103Z,64.4
2018-02-21T05:01:04.829Z,64.4
2018-02-21T05:02:05.545Z,63.5
2018-02-21T05:03:06.279Z,64.8
2018-02-21T05:04:07.051Z,66.7
2018-02-21T05:05:07.778Z,71.3
2018-02-21T05:06:08.493Z,65.9
2018-02-21T05:07:09.208Z,66.8
2018-02-21T05:08:09.941Z,64.3
2018-02-21T05:09:10.714Z,63.2
2018-02-21T05:10:11.519Z,60.4
2018-02-21T05:11:12.288Z,62.8
2018-02-21T05:12:13.007Z,61.4
2018-02-21T05:13:13.728Z,58.9
2018-02-21T05:14:14.525Z,60.0
2018-02-21T05:15:15.250Z,59.5
2018-02-21T05:16:16.034Z,61.1
2018-02-21T05:17:16.820Z,63.1
2018-02-21T05:18:17.617Z,60.6
2018-02-21T05:19:18.326Z,63.2
2018-02-21T05:20:19.039Z,58.9
2018-02-21T05:21:19.823Z,59.0
2018-02-21T05:22:20.598Z,57.6
2018-02-21T05:23:21.322Z,57.1
2018-02-21T05:24:22.039Z,58.7
2018-02-21T05:25:22.757Z,57.6
2018-02-21T05:26:23.458Z,55.9
2018-02-21T05:27:24.172Z,58.2
2018-02-21T05:28:24.903Z,59.5
2018-02-21T05:29:25.678Z,58.3
2018-02-21T05:30:26.390Z,57.7
2018-02-21T05:31:27.088Z,60.2
2018-02-21T05:32:27.809Z,56.1
2018-02-21T05:33:28.530Z,58.1
2018-02-21T05:34:29.329Z,57.2
2018-02-21T05:35:30.096Z,56.8
2018-02-21T05:36:30.816Z,58.7
2018-02-21T05:37:31.529Z,56.8
2018-02-21T05:38:32.317Z,56.0
2018-02-21T05:39:33.038Z,55.5
2018-02-21T05:40:33.808Z,58.0
2018-02-21T05:41:34.509Z,53.2
2018-02-21T05:42:35.248Z,57.7
2018-02-21T05:43:35.973Z,57.0
2018-02-21T05:44:36.690Z,54.0
2018-02-21T05:45:37.449Z,56.5
2018-02-21T05:46:38.176Z,57.2
2018-02-21T05:47:38.888Z,57.4
2018-02-21T05:48:39.608Z,57.5
2018-02-21T05:49:40.328Z,56.0
2018-02-21T05:50:41.100Z,55.5
2018-02-21T05:51:41.808Z,57.2
2018-02-21T05:52:42.527Z,56.4
2018-02-21T05:53:43.300Z,55.4
2018-02-21T05:54:44.022Z,56.8
2018-02-21T05:55:44.767Z,56.2
2018-02-21T05:56:45.547Z,59.3
2018-02-21T05:57:46.258Z,58.3
2018-02-21T05:58:47.046Z,54.2
2018-02-21T05:59:47.880Z,54.2
2018-02-21T06:00:48.574Z,53.2
2018-02-21T06:01:49.358Z,54.2
2018-02-21T06:02:50.076Z,54.7
2018-02-21T06:03:50.850Z,52.9
2018-02-21T06:04:51.573Z,51.6
2018-02-21T06:05:52.300Z,54.4
2018-02-21T06:06:53.145Z,54.6
2018-02-21T06:07:53.859Z,52.5
2018-02-21T06:08:54.577Z,52.0
2018-02-21T06:09:55.299Z,54.2
2018-02-21T06:10:56.027Z,51.5
2018-02-21T06:11:56.764Z,53.9
2018-02-21T06:12:57.520Z,52.7
2018-02-21T06:13:58.304Z,53.4
2018-02-21T06:14:59.074Z,52.8
2018-02-21T06:15:59.799Z,53.1
2018-02-21T06:17:00.528Z,53.6
2018-02-21T06:18:01.248Z,54.3
2018-02-21T06:19:01.958Z,53.3
2018-02-21T06:20:02.720Z,55.8
2018-02-21T06:21:03.429Z,54.7
2018-02-21T06:22:04.147Z,52.6
2018-02-21T06:23:04.887Z,53.6
2018-02-21T06:24:05.646Z,52.2
2018-02-21T06:25:06.487Z,50.3
2018-02-21T06:26:07.243Z,52.7
2018-02-21T06:27:07.970Z,52.1
2018-02-21T06:28:08.689Z,54.2
2018-02-21T06:29:09.493Z,54.5
2018-02-21T06:30:10.197Z,53.3
2018-02-21T06:31:10.925Z,55.7
2018-02-21T06:32:11.694Z,56.7
2018-02-21T06:33:12.427Z,56.4
2018-02-21T06:34:13.149Z,57.8
2018-02-21T06:35:13.922Z,54.9
2018-02-21T06:36:14.706Z,54.1
2018-02-21T06:37:15.431Z,53.1
2018-02-21T06:38:16.209Z,54.2
2018-02-21T06:39:16.922Z,54.1
2018-02-21T06:40:17.709Z,55.0
2018-02-21T06:41:18.434Z,54.2
2018-02-21T06:42:19.182Z,52.8
2018-02-21T06:43:19.919Z,53.6
2018-02-21T06:44:20.728Z,55.2
2018-02-21T06:45:21.464Z,55.0
2018-02-21T06:46:22.208Z,57.9
2018-02-21T06:47:23.038Z,57.2
2018-02-21T06:48:23.756Z,56.1
2018-02-21T06:49:24.484Z,56.9
2018-02-21T06:50:25.296Z,57.0
2018-02-21T06:51:26.020Z,58.7
2018-02-21T06:52:26.828Z,59.1
2018-02-21T06:53:27.558Z,59.9
2018-02-21T06:54:28.286Z,61.0
2018-02-21T06:55:28.993Z,60.4
2018-02-21T06:56:29.730Z,64.5
2018-02-21T06:57:30.558Z,63.1
2018-02-21T06:58:31.351Z,61.8
2018-02-21T06:59:32.091Z,64.0
2018-02-21T07:00:32.817Z,59.9
2018-02-21T07:01:33.564Z,59.4
2018-02-21T07:02:34.301Z,61.5
2018-02-21T07:03:35.011Z,62.5
2018-02-21T07:04:35.786Z,60.8
2018-02-21T07:05:36.519Z,64.7
2018-02-21T07:06:37.301Z,65.1
2018-02-21T07:07:38.095Z,63.1
2018-02-21T07:08:38.863Z,65.1
2018-02-21T07:09:39.578Z,64.0
2018-02-21T07:10:40.317Z,66.0
2018-02-21T07:11:41.089Z,67.4
2018-02-21T07:12:41.845Z,64.6
2018-02-21T07:13:42.612Z,65.8
2018-02-21T07:14:43.397Z,62.2
2018-02-21T07:15:44.178Z,62.2
2018-02-21T07:16:44.917Z,61.2
2018-02-21T07:17:45.648Z,61.2
2018-02-21T07:18:46.449Z,59.1
2018-02-21T07:19:47.183Z,60.6
2018-02-21T07:20:47.915Z,59.8
2018-02-21T07:21:48.690Z,63.7
2018-02-21T07:22:50.040Z,63.3
2018-02-21T07:23:52.041Z,62.6
2018-02-21T07:24:52.979Z,64.2
2018-02-21T07:25:53.797Z,63.0
2018-02-21T07:26:54.567Z,63.5
2018-02-21T07:27:56.385Z,63.5
2018-02-21T07:28:57.329Z,65.7
2018-02-21T07:29:58.107Z,66.3
2018-02-21T07:30:58.859Z,66.9
2018-02-21T07:31:59.602Z,65.4
2018-02-21T07:33:00.355Z,66.8
2018-02-21T07:34:01.167Z,70.3
2018-02-21T07:35:01.965Z,71.5
2018-02-21T07:36:02.755Z,73.8
2018-02-21T07:37:03.557Z,73.6
2018-02-21T07:38:04.291Z,70.7
2018-02-21T07:39:05.111Z,72.5
2018-02-21T07:40:05.807Z,68.3
2018-02-21T07:41:06.527Z,70.0
2018-02-21T07:42:07.326Z,73.3
2018-02-21T07:43:08.112Z,72.3
2018-02-21T07:44:08.851Z,73.5
2018-02-21T07:45:09.582Z,72.7
2018-02-21T07:46:10.376Z,70.0
2018-02-21T07:47:11.154Z,65.0
2018-02-21T07:48:11.932Z,69.5
2018-02-21T07:49:12.668Z,69.3
2018-02-21T07:50:13.468Z,65.9
2018-02-21T07:51:14.522Z,66.5
2018-02-21T07:52:16.475Z,69.0
2018-02-21T07:53:17.468Z,70.7
2018-02-21T07:54:18.213Z,69.9
2018-02-21T07:55:18.968Z,69.1
2018-02-21T07:56:19.702Z,66.5
2018-02-21T07:57:20.482Z,67.1
2018-02-21T07:58:21.150Z,66.4
2018-02-21T07:59:21.882Z,65.4
2018-02-21T08:00:22.660Z,60.6
2018-02-21T08:01:23.418Z,59.8
2018-02-21T08:02:24.240Z,62.2
2018-02-21T08:03:24.910Z,62.5
2018-02-21T08:04:25.631Z,60.1
2018-02-21T08:05:26.392Z,60.1
2018-02-21T08:06:27.145Z,60.8
2018-02-21T08:07:27.898Z,60.3
2018-02-21T08:08:28.617Z,58.0
2018-02-21T08:09:29.353Z,55.9
2018-02-21T08:10:30.160Z,56.0
2018-02-21T08:11:30.892Z,52.8
2018-02-21T08:12:31.631Z,51.7
2018-02-21T08:13:32.378Z,49.9
2018-02-21T08:14:33.105Z,47.1
2018-02-21T08:15:33.816Z,44.0
2018-02-21T08:16:34.534Z,43.4
2018-02-21T08:17:35.260Z,42.4
2018-02-21T08:18:36.006Z,43.1
2018-02-21T08:19:36.807Z,40.5
2018-02-21T08:20:37.590Z,43.3
2018-02-21T08:21:38.316Z,42.3
2018-02-21T08:22:39.040Z,42.5
2018-02-21T08:23:39.776Z,43.5
2018-02-21T08:24:40.518Z,41.3
2018-02-21T08:25:41.263Z,41.4
2018-02-21T08:26:42.355Z,40.9
2018-02-21T08:27:43.304Z,42.6
2018-02-21T08:28:45.063Z,41.2
2018-02-21T08:29:45.879Z,42.9
2018-02-21T08:30:46.634Z,42.2
2018-02-21T08:31:47.359Z,42.3
2018-02-21T08:32:48.207Z,41.0
2018-02-21T08:33:48.950Z,43.2
2018-02-21T08:34:49.707Z,42.5
2018-02-21T08:35:50.434Z,40.8
2018-02-21T08:36:51.148Z,41.4
2018-02-21T08:37:51.922Z,41.0
2018-02-21T08:38:52.737Z,40.1
2018-02-21T08:39:53.462Z,42.1
2018-02-21T08:40:54.199Z,40.4
2018-02-21T08:41:54.927Z,41.4
2018-02-21T08:42:55.659Z,41.7
2018-02-21T08:43:57.702Z,41.2
2018-02-21T08:44:58.744Z,39.2
2018-02-21T08:45:59.543Z,39.8
2018-02-21T08:47:00.281Z,41.1
2018-02-21T08:48:01.048Z,40.4
2018-02-21T08:49:01.822Z,37.5
2018-02-21T08:50:02.538Z,38.9
2018-02-21T08:51:03.265Z,37.7
2018-02-21T08:52:04.073Z,39.3
2018-02-21T08:53:04.778Z,40.4
2018-02-21T08:54:05.573Z,39.0
2018-02-21T08:55:06.360Z,37.5
2018-02-21T08:56:07.100Z,38.1
2018-02-21T08:57:07.877Z,36.4
2018-02-21T08:58:08.598Z,35.5
2018-02-21T08:59:09.449Z,37.8
2018-02-21T09:00:10.190Z,37.9
2018-02-21T09:01:10.958Z,37.2
2018-02-21T09:02:11.680Z,35.4
2018-02-21T09:03:12.414Z,36.3
2018-02-21T09:04:13.228Z,36.2
2018-02-21T09:05:14.030Z,36.5
2018-02-21T09:06:14.762Z,38.0
2018-02-21T09:07:15.487Z,36.5
2018-02-21T09:08:16.198Z,36.3
2018-02-21T09:09:16.918Z,35.5
2018-02-21T09:10:17.655Z,35.6
2018-02-21T09:11:18.408Z,34.9
2018-02-21T09:12:19.168Z,35.5
2018-02-21T09:13:19.888Z,36.4
2018-02-21T09:14:20.623Z,34.9
2018-02-21T09:15:21.453Z,34.5
2018-02-21T09:16:22.189Z,33.3
2018-02-21T09:17:22.910Z,33.2
2018-02-21T09:18:23.630Z,34.2
2018-02-21T09:19:24.378Z,33.8
2018-02-21T09:20:25.175Z,33.5
2018-02-21T09:21:25.948Z,34.7
2018-02-21T09:22:26.731Z,35.3
2018-02-21T09:23:27.462Z,35.3
2018-02-21T09:24:28.177Z,36.3
2018-02-21T09:25:28.982Z,37.3
2018-02-21T09:26:29.728Z,34.6
2018-02-21T09:27:30.550Z,36.2
2018-02-21T09:28:31.253Z,35.8
2018-02-21T09:29:32.034Z,35.6
2018-02-21T09:30:32.768Z,37.9
2018-02-21T09:31:33.508Z,36.0
2018-02-21T09:32:34.284Z,35.1
2018-02-21T09:33:35.030Z,35.7
2018-02-21T09:34:35.814Z,35.9
2018-02-21T09:35:36.597Z,35.9
2018-02-21T09:36:37.325Z,34.5
2018-02-21T09:37:38.053Z,36.7
2018-02-21T09:38:38.787Z,34.4
2018-02-21T09:39:39.515Z,34.9
2018-02-21T09:40:40.322Z,34.5
2018-02-21T09:41:41.041Z,33.9
2018-02-21T09:42:41.762Z,32.9
2018-02-21T09:43:42.498Z,33.1
2018-02-21T09:44:43.282Z,33.6
2018-02-21T09:45:44.093Z,33.2
2018-02-21T09:46:44.884Z,33.5
2018-02-21T09:47:45.607Z,34.8
2018-02-21T09:48:46.338Z,32.3
2018-02-21T09:49:47.064Z,33.7
2018-02-21T09:50:47.784Z,33.8
2018-02-21T09:51:48.576Z,35.1
2018-02-21T09:52:49.310Z,34.0
2018-02-21T09:53:50.119Z,34.4
2018-02-21T09:54:50.998Z,34.3
2018-02-21T09:55:51.738Z,34.0
2018-02-21T09:56:52.459Z,32.8
2018-02-21T09:57:53.247Z,34.5
2018-02-21T09:58:53.968Z,33.5
2018-02-21T09:59:54.713Z,32.9
2018-02-21T10:00:55.515Z,34.0
2018-02-21T10:01:56.261Z,32.4
2018-02-21T10:02:56.993Z,34.2
2018-02-21T10:03:57.732Z,34.6
2018-02-21T10:04:58.481Z,32.7
2018-02-21T10:05:59.256Z,35.9
2018-02-21T10:07:00.039Z,34.0
2018-02-21T10:08:00.776Z,33.3
2018-02-21T10:09:01.508Z,34.4
2018-02-21T10:10:02.240Z,33.3
2018-02-21T10:11:02.968Z,33.4
2018-02-21T10:12:03.717Z,34.6
2018-02-21T10:13:04.488Z,33.9
2018-02-21T10:14:05.209Z,32.4
2018-02-21T10:15:06.050Z,32.7
2018-02-21T10:16:06.755Z,33.1
2018-02-21T10:17:07.532Z,32.9
2018-02-21T10:18:08.259Z,32.6
2018-02-21T10:19:08.988Z,31.8
2018-02-21T10:20:09.713Z,33.8
2018-02-21T10:21:10.437Z,34.0
2018-02-21T10:22:11.169Z,33.0
2018-02-21T10:23:11.967Z,32.3
2018-02-21T10:24:12.711Z,32.7
2018-02-21T10:25:13.487Z,32.8
2018-02-21T10:26:14.225Z,31.5
2018-02-21T10:27:14.957Z,31.8
2018-02-21T10:28:15.698Z,32.0
2018-02-21T10:29:16.508Z,31.8
2018-02-21T10:30:17.248Z,32.1
2018-02-21T10:31:17.979Z,30.9
2018-02-21T10:32:18.797Z,32.1
2018-02-21T10:33:19.530Z,30.2
2018-02-21T10:34:20.338Z,30.8
2018-02-21T10:35:21.068Z,31.0
2018-02-21T10:36:21.807Z,33.1
2018-02-21T10:37:22.540Z,31.8
2018-02-21T10:38:23.287Z,30.4
2018-02-21T10:39:24.059Z,30.6
2018-02-21T10:40:24.789Z,29.3
2018-02-21T10:41:25.525Z,29.8
2018-02-21T10:42:26.265Z,28.8
2018-02-21T10:43:27.119Z,30.7
2018-02-21T10:44:27.858Z,30.6
2018-02-21T10:45:28.596Z,29.9
2018-02-21T10:46:29.337Z,30.7
2018-02-21T10:47:30.071Z,30.7
2018-02-21T10:48:30.848Z,31.3
2018-02-21T10:49:31.591Z,30.7
2018-02-21T10:50:32.327Z,30.2
2018-02-21T10:51:33.065Z,30.7
2018-02-21T10:52:33.855Z,30.9
2018-02-21T10:53:34.641Z,31.3
2018-02-21T10:54:35.429Z,30.3
2018-02-21T10:55:36.169Z,31.8
2018-02-21T10:56:36.937Z,29.1
2018-02-21T10:57:37.708Z,29.7
2018-02-21T10:58:38.497Z,29.8
2018-02-21T10:59:39.227Z,28.8
2018-02-21T11:00:39.968Z,29.2
2018-02-21T11:01:40.750Z,28.5
2018-02-21T11:02:41.478Z,30.0
2018-02-21T11:03:42.248Z,28.6
2018-02-21T11:04:42.985Z,30.3
2018-02-21T11:05:43.713Z,29.9
2018-02-21T11:06:44.452Z,29.5
2018-02-21T11:07:45.168Z,30.2
2018-02-21T11:08:45.916Z,30.3
2018-02-21T11:09:46.651Z,29.1
2018-02-21T11:10:47.377Z,31.2
2018-02-21T11:11:48.093Z,29.0
2018-02-21T11:12:48.829Z,29.2
2018-02-21T11:13:49.630Z,28.6
2018-02-21T11:14:50.357Z,28.5
2018-02-21T11:15:51.090Z,29.4
2018-02-21T11:16:51.828Z,29.3
2018-02-21T11:17:52.647Z,28.1
2018-02-21T11:18:53.458Z,28.7
2018-02-21T11:19:54.220Z,28.5
2018-02-21T11:20:54.960Z,28.2
2018-02-21T11:21:55.773Z,27.8
2018-02-21T11:22:56.498Z,28.7
2018-02-21T11:23:57.226Z,28.6
2018-02-21T11:24:58.060Z,28.4
2018-02-21T11:25:58.788Z,29.4
2018-02-21T11:26:59.527Z,28.7
2018-02-21T11:28:00.330Z,29.0
2018-02-21T11:29:01.115Z,28.6
2018-02-21T11:30:01.920Z,27.4
2018-02-21T11:31:02.671Z,27.0
2018-02-21T11:32:03.476Z,26.1
2018-02-21T11:33:04.270Z,29.5
2018-02-21T11:34:04.999Z,27.4
2018-02-21T11:35:05.776Z,27.5
2018-02-21T11:36:06.502Z,27.0
2018-02-21T11:37:07.240Z,27.6
2018-02-21T11:38:08.037Z,28.6
2018-02-21T11:39:08.765Z,26.4
2018-02-21T11:40:09.605Z,26.5
2018-02-21T11:41:10.337Z,26.8
2018-02-21T11:42:11.065Z,26.2
2018-02-21T11:43:11.798Z,27.2
2018-02-21T11:44:12.541Z,29.3
2018-02-21T11:45:13.374Z,27.5
2018-02-21T11:46:14.117Z,26.4
2018-02-21T11:47:14.865Z,25.7
2018-02-21T11:48:15.594Z,25.2
2018-02-21T11:49:16.317Z,26.5
2018-02-21T11:50:17.108Z,26.5
2018-02-21T11:51:17.882Z,25.7
2018-02-21T11:52:18.627Z,25.6
2018-02-21T11:53:20.247Z,23.7
2018-02-21T11:54:21.342Z,24.3
2018-02-21T11:55:22.074Z,23.4
2018-02-21T11:56:22.809Z,22.2
2018-02-21T11:57:23.526Z,22.3
2018-02-21T11:58:24.274Z,23.4
2018-02-21T11:59:24.995Z,21.6
2018-02-21T12:00:25.738Z,21.1
2018-02-21T12:01:26.472Z,21.8
2018-02-21T12:02:27.215Z,21.9
2018-02-21T12:03:27.952Z,21.9
2018-02-21T12:04:28.815Z,24.3
2018-02-21T12:05:29.548Z,23.8
2018-02-21T12:06:30.282Z,22.8
2018-02-21T12:07:31.015Z,23.0
2018-02-21T12:08:31.748Z,22.8
2018-02-21T12:09:33.287Z,23.0
2018-02-21T12:10:34.052Z,21.8
2018-02-21T12:11:35.117Z,23.0
2018-02-21T12:12:35.782Z,22.1
2018-02-21T12:13:36.570Z,22.2
2018-02-21T12:14:37.345Z,22.7
2018-02-21T12:15:38.106Z,23.1
2018-02-21T12:16:38.889Z,23.3
2018-02-21T12:17:39.754Z,22.9
2018-02-21T12:18:40.476Z,22.9
2018-02-21T12:19:41.222Z,22.6
2018-02-21T12:20:42.006Z,23.0
2018-02-21T12:21:42.806Z,24.9
2018-02-21T12:22:43.539Z,23.3
2018-02-21T12:23:44.329Z,22.4
2018-02-21T12:24:45.035Z,22.2
2018-02-21T12:25:45.768Z,23.1
2018-02-21T12:26:46.505Z,23.0
2018-02-21T12:27:47.319Z,23.7
2018-02-21T12:28:48.066Z,24.4
2018-02-21T12:29:48.819Z,24.3
2018-02-21T12:30:49.541Z,24.2
2018-02-21T12:31:50.375Z,24.0
2018-02-21T12:32:51.879Z,23.5
2018-02-21T12:33:52.587Z,24.2
2018-02-21T12:34:53.403Z,23.5
2018-02-21T12:35:54.196Z,23.4
2018-02-21T12:36:54.996Z,23.4
2018-02-21T12:37:55.730Z,22.0
2018-02-21T12:38:56.470Z,24.5
2018-02-21T12:39:57.317Z,24.1
2018-02-21T12:40:58.082Z,23.3
2018-02-21T12:41:58.863Z,23.8
2018-02-21T12:42:59.604Z,23.5
2018-02-21T12:44:00.386Z,23.0
2018-02-21T12:45:01.140Z,22.5
2018-02-21T12:46:01.960Z,23.8
2018-02-21T12:47:02.700Z,23.4
2018-02-21T12:48:03.421Z,23.0
2018-02-21T12:49:04.199Z,23.8
2018-02-21T12:50:04.979Z,23.4
2018-02-21T12:51:05.753Z,22.1
2018-02-21T12:52:06.527Z,22.7
2018-02-21T12:53:07.260Z,23.1
2018-02-21T12:54:08.049Z,24.3
2018-02-21T12:55:08.768Z,22.5
2018-02-21T12:56:09.501Z,23.4
2018-02-21T12:57:10.493Z,23.2
2018-02-21T12:58:11.437Z,23.1
2018-02-21T12:59:12.200Z,22.3
2018-02-21T13:00:13.016Z,22.4
2018-02-21T13:01:13.715Z,21.8
2018-02-21T13:02:14.525Z,22.8
2018-02-21T13:03:15.254Z,21.8
2018-02-21T13:04:16.081Z,21.7
2018-02-21T13:05:16.947Z,21.9
2018-02-21T13:06:17.756Z,21.2
2018-02-21T13:07:18.495Z,22.2
2018-02-21T13:08:19.227Z,21.4
2018-02-21T13:09:20.004Z,20.9
2018-02-21T13:10:20.759Z,23.5
2018-02-21T13:11:21.492Z,21.9
2018-02-21T13:12:22.228Z,21.9
2018-02-21T13:13:22.967Z,22.9
2018-02-21T13:14:23.752Z,22.6
2018-02-21T13:15:24.483Z,22.5
2018-02-21T13:16:25.225Z,22.9
2018-02-21T13:17:25.965Z,22.2
2018-02-21T13:18:26.728Z,21.9
2018-02-21T13:19:27.508Z,22.6
2018-02-21T13:20:28.352Z,22.4
2018-02-21T13:21:29.143Z,22.6
2018-02-21T13:22:29.939Z,22.5
2018-02-21T13:23:30.740Z,21.6
2018-02-21T13:24:31.559Z,21.5
2018-02-21T13:25:33.212Z,22.7
2018-02-21T13:26:33.934Z,22.5
2018-02-21T13:27:34.702Z,22.1
2018-02-21T13:28:35.428Z,22.4
2018-02-21T13:29:36.155Z,22.3
2018-02-21T13:30:36.969Z,21.8